sensor_id;sensor_type;location;lat;lon;timestamp;P1;durP1;ratioP1;P2;durP2;ratioP2
31537;SDS011;18147;51.952;6.146;2022-09-30T00:01:08;17.13;;;9.57;;
31537;SDS011;18147;51.952;6.146;2022-09-30T00:03:34;20.98;;;10.38;;
31537;SDS011;18147;51.952;6.146;2022-09-30T00:06:03;12.25;;;8.48;;
31537;SDS011;18147;51.952;6.146;2022-09-30T00:08:30;14.48;;;8.52;;
31537;SDS011;18147;51.952;6.146;2022-09-30T00:11:06;14.23;;;8.02;;
31537;SDS011;18147;51.952;6.146;2022-09-30T00:13:34;13.75;;;9.27;;
31537;SDS011;18147;51.952;6.146;2022-09-30T00:16:02;15.75;;;9.23;;
31537;SDS011;18147;51.952;6.146;2022-09-30T00:18:28;16.40;;;9.70;;
31537;SDS011;18147;51.952;6.146;2022-09-30T00:20:54;16.48;;;9.43;;
31537;SDS011;18147;51.952;6.146;2022-09-30T00:23:20;15.23;;;8.50;;
31537;SDS011;18147;51.952;6.146;2022-09-30T00:25:46;12.85;;;8.73;;
31537;SDS011;18147;51.952;6.146;2022-09-30T00:28:12;13.13;;;8.13;;
31537;SDS011;18147;51.952;6.146;2022-09-30T00:30:38;12.63;;;8.43;;
31537;SDS011;18147;51.952;6.146;2022-09-30T00:33:04;12.35;;;7.70;;
31537;SDS011;18147;51.952;6.146;2022-09-30T00:35:29;14.20;;;8.07;;
31537;SDS011;18147;51.952;6.146;2022-09-30T00:37:55;10.20;;;7.13;;
31537;SDS011;18147;51.952;6.146;2022-09-30T00:40:21;12.98;;;6.63;;
31537;SDS011;18147;51.952;6.146;2022-09-30T00:42:46;10.75;;;6.70;;
31537;SDS011;18147;51.952;6.146;2022-09-30T00:45:12;10.25;;;7.03;;
31537;SDS011;18147;51.952;6.146;2022-09-30T00:47:43;12.27;;;7.30;;
31537;SDS011;18147;51.952;6.146;2022-09-30T00:50:12;12.68;;;8.10;;
31537;SDS011;18147;51.952;6.146;2022-09-30T00:52:40;17.58;;;8.88;;
31537;SDS011;18147;51.952;6.146;2022-09-30T00:55:08;13.25;;;7.93;;
31537;SDS011;18147;51.952;6.146;2022-09-30T00:57:44;12.48;;;7.80;;
31537;SDS011;18147;51.952;6.146;2022-09-30T01:00:10;12.90;;;8.30;;
31537;SDS011;18147;51.952;6.146;2022-09-30T01:02:35;15.07;;;9.45;;
31537;SDS011;18147;51.952;6.146;2022-09-30T01:05:00;13.10;;;6.55;;
31537;SDS011;18147;51.952;6.146;2022-09-30T01:07:27;9.32;;;6.30;;
31537;SDS011;18147;51.952;6.146;2022-09-30T01:09:53;9.32;;;6.75;;
31537;SDS011;18147;51.952;6.146;2022-09-30T01:12:21;12.68;;;7.80;;
31537;SDS011;18147;51.952;6.146;2022-09-30T01:14:49;9.73;;;6.60;;
31537;SDS011;18147;51.952;6.146;2022-09-30T01:22:38;9.68;;;7.00;;
31537;SDS011;18147;51.952;6.146;2022-09-30T01:28:21;10.65;;;7.82;;
31537;SDS011;18147;51.952;6.146;2022-09-30T01:39:06;18.95;;;9.35;;
31537;SDS011;18147;51.952;6.146;2022-09-30T01:47:16;10.40;;;6.97;;
31537;SDS011;18147;51.952;6.146;2022-09-30T01:50:09;10.15;;;6.95;;
31537;SDS011;18147;51.952;6.146;2022-09-30T01:55:48;10.85;;;7.63;;
31537;SDS011;18147;51.952;6.146;2022-09-30T01:58:25;12.75;;;8.80;;
31537;SDS011;18147;51.952;6.146;2022-09-30T02:00:54;11.13;;;8.20;;
31537;SDS011;18147;51.952;6.146;2022-09-30T02:04:07;13.07;;;8.70;;
31537;SDS011;18147;51.952;6.146;2022-09-30T02:06:18;10.27;;;7.10;;
31537;SDS011;18147;51.952;6.146;2022-09-30T02:08:54;8.30;;;6.18;;
31537;SDS011;18147;51.952;6.146;2022-09-30T02:11:27;8.80;;;6.22;;
31537;SDS011;18147;51.952;6.146;2022-09-30T02:16:47;9.80;;;7.63;;
31537;SDS011;18147;51.952;6.146;2022-09-30T02:19:21;9.55;;;7.57;;
31537;SDS011;18147;51.952;6.146;2022-09-30T02:22:01;11.63;;;7.90;;
31537;SDS011;18147;51.952;6.146;2022-09-30T02:24:33;10.63;;;7.10;;
31537;SDS011;18147;51.952;6.146;2022-09-30T02:27:04;14.40;;;7.22;;
31537;SDS011;18147;51.952;6.146;2022-09-30T02:32:04;10.90;;;6.97;;
31537;SDS011;18147;51.952;6.146;2022-09-30T02:34:38;10.63;;;7.88;;
31537;SDS011;18147;51.952;6.146;2022-09-30T02:37:11;15.65;;;9.30;;
31537;SDS011;18147;51.952;6.146;2022-09-30T02:42:38;17.52;;;10.70;;
31537;SDS011;18147;51.952;6.146;2022-09-30T02:45:10;13.10;;;7.68;;
31537;SDS011;18147;51.952;6.146;2022-09-30T02:50:33;10.43;;;6.72;;
31537;SDS011;18147;51.952;6.146;2022-09-30T02:58:34;16.52;;;8.20;;
31537;SDS011;18147;51.952;6.146;2022-09-30T03:01:03;24.92;;;11.43;;
31537;SDS011;18147;51.952;6.146;2022-09-30T03:03:32;35.25;;;11.98;;
31537;SDS011;18147;51.952;6.146;2022-09-30T03:06:02;35.17;;;13.73;;
31537;SDS011;18147;51.952;6.146;2022-09-30T03:08:28;22.45;;;10.82;;
31537;SDS011;18147;51.952;6.146;2022-09-30T03:10:54;44.25;;;10.48;;
31537;SDS011;18147;51.952;6.146;2022-09-30T03:16:04;18.77;;;9.13;;
31537;SDS011;18147;51.952;6.146;2022-09-30T03:18:56;15.85;;;9.50;;
31537;SDS011;18147;51.952;6.146;2022-09-30T03:27:16;18.33;;;10.27;;
31537;SDS011;18147;51.952;6.146;2022-09-30T03:29:57;16.27;;;10.43;;
31537;SDS011;18147;51.952;6.146;2022-09-30T03:40:35;30.25;;;11.13;;
31537;SDS011;18147;51.952;6.146;2022-09-30T03:43:08;17.80;;;10.45;;
31537;SDS011;18147;51.952;6.146;2022-09-30T03:45:44;17.00;;;10.82;;
31537;SDS011;18147;51.952;6.146;2022-09-30T03:48:22;16.98;;;9.27;;
31537;SDS011;18147;51.952;6.146;2022-09-30T03:50:51;17.20;;;10.63;;
31537;SDS011;18147;51.952;6.146;2022-09-30T03:53:17;18.08;;;11.15;;
31537;SDS011;18147;51.952;6.146;2022-09-30T03:55:46;14.95;;;9.70;;
31537;SDS011;18147;51.952;6.146;2022-09-30T03:58:15;37.30;;;9.95;;
31537;SDS011;18147;51.952;6.146;2022-09-30T04:00:49;11.43;;;7.95;;
31537;SDS011;18147;51.952;6.146;2022-09-30T04:03:19;10.82;;;7.47;;
31537;SDS011;18147;51.952;6.146;2022-09-30T04:05:45;14.52;;;9.38;;
31537;SDS011;18147;51.952;6.146;2022-09-30T04:08:12;16.58;;;10.48;;
31537;SDS011;18147;51.952;6.146;2022-09-30T04:10:38;16.45;;;10.25;;
31537;SDS011;18147;51.952;6.146;2022-09-30T04:13:06;21.15;;;12.63;;
31537;SDS011;18147;51.952;6.146;2022-09-30T04:15:32;20.05;;;10.57;;
31537;SDS011;18147;51.952;6.146;2022-09-30T04:17:57;19.30;;;12.27;;
31537;SDS011;18147;51.952;6.146;2022-09-30T04:20:23;19.23;;;11.30;;
31537;SDS011;18147;51.952;6.146;2022-09-30T04:22:49;22.98;;;12.35;;
31537;SDS011;18147;51.952;6.146;2022-09-30T04:25:14;22.33;;;12.00;;
31537;SDS011;18147;51.952;6.146;2022-09-30T04:27:40;16.90;;;10.25;;
31537;SDS011;18147;51.952;6.146;2022-09-30T04:30:06;16.33;;;10.25;;
31537;SDS011;18147;51.952;6.146;2022-09-30T04:32:31;16.60;;;10.77;;
31537;SDS011;18147;51.952;6.146;2022-09-30T04:34:57;18.27;;;11.30;;
31537;SDS011;18147;51.952;6.146;2022-09-30T04:37:22;17.50;;;10.65;;
31537;SDS011;18147;51.952;6.146;2022-09-30T04:39:48;17.48;;;11.23;;
31537;SDS011;18147;51.952;6.146;2022-09-30T04:42:14;20.33;;;11.10;;
31537;SDS011;18147;51.952;6.146;2022-09-30T04:44:40;17.13;;;11.95;;
31537;SDS011;18147;51.952;6.146;2022-09-30T04:47:06;14.65;;;10.00;;
31537;SDS011;18147;51.952;6.146;2022-09-30T04:49:31;15.82;;;9.80;;
31537;SDS011;18147;51.952;6.146;2022-09-30T04:51:56;14.82;;;9.70;;
31537;SDS011;18147;51.952;6.146;2022-09-30T04:54:22;15.32;;;9.80;;
31537;SDS011;18147;51.952;6.146;2022-09-30T04:56:48;14.30;;;9.63;;
31537;SDS011;18147;51.952;6.146;2022-09-30T04:59:13;15.00;;;10.23;;
31537;SDS011;18147;51.952;6.146;2022-09-30T05:01:39;18.52;;;11.20;;
31537;SDS011;18147;51.952;6.146;2022-09-30T05:04:06;19.48;;;12.23;;
31537;SDS011;18147;51.952;6.146;2022-09-30T05:06:33;17.13;;;11.55;;
31537;SDS011;18147;51.952;6.146;2022-09-30T05:08:58;15.50;;;10.23;;
31537;SDS011;18147;51.952;6.146;2022-09-30T05:11:24;18.15;;;10.93;;
31537;SDS011;18147;51.952;6.146;2022-09-30T05:13:50;18.08;;;10.60;;
31537;SDS011;18147;51.952;6.146;2022-09-30T05:16:15;17.90;;;11.75;;
31537;SDS011;18147;51.952;6.146;2022-09-30T05:18:41;16.92;;;11.15;;
31537;SDS011;18147;51.952;6.146;2022-09-30T05:21:10;15.82;;;9.65;;
31537;SDS011;18147;51.952;6.146;2022-09-30T05:23:37;13.20;;;9.40;;
31537;SDS011;18147;51.952;6.146;2022-09-30T05:26:02;20.42;;;12.38;;
31537;SDS011;18147;51.952;6.146;2022-09-30T05:28:28;16.52;;;10.02;;
31537;SDS011;18147;51.952;6.146;2022-09-30T05:31:02;14.35;;;9.80;;
31537;SDS011;18147;51.952;6.146;2022-09-30T05:33:30;13.98;;;8.85;;
31537;SDS011;18147;51.952;6.146;2022-09-30T05:36:04;12.20;;;8.15;;
31537;SDS011;18147;51.952;6.146;2022-09-30T05:38:31;19.10;;;12.25;;
31537;SDS011;18147;51.952;6.146;2022-09-30T05:40:56;21.23;;;11.63;;
31537;SDS011;18147;51.952;6.146;2022-09-30T05:43:22;21.92;;;11.93;;
31537;SDS011;18147;51.952;6.146;2022-09-30T05:45:54;18.85;;;10.32;;
31537;SDS011;18147;51.952;6.146;2022-09-30T05:48:21;15.60;;;9.55;;
31537;SDS011;18147;51.952;6.146;2022-09-30T05:50:48;17.98;;;11.02;;
31537;SDS011;18147;51.952;6.146;2022-09-30T05:53:17;20.10;;;12.30;;
31537;SDS011;18147;51.952;6.146;2022-09-30T05:55:46;20.77;;;11.73;;
31537;SDS011;18147;51.952;6.146;2022-09-30T05:58:13;21.90;;;11.60;;
31537;SDS011;18147;51.952;6.146;2022-09-30T06:00:40;17.73;;;10.55;;
31537;SDS011;18147;51.952;6.146;2022-09-30T06:03:06;19.30;;;12.27;;
31537;SDS011;18147;51.952;6.146;2022-09-30T06:05:32;18.92;;;10.57;;
31537;SDS011;18147;51.952;6.146;2022-09-30T06:07:57;18.42;;;10.77;;
31537;SDS011;18147;51.952;6.146;2022-09-30T06:10:23;13.63;;;9.32;;
31537;SDS011;18147;51.952;6.146;2022-09-30T06:12:48;19.10;;;12.18;;
31537;SDS011;18147;51.952;6.146;2022-09-30T06:15:14;20.58;;;10.77;;
31537;SDS011;18147;51.952;6.146;2022-09-30T06:17:39;17.75;;;12.13;;
31537;SDS011;18147;51.952;6.146;2022-09-30T06:20:07;18.08;;;11.55;;
31537;SDS011;18147;51.952;6.146;2022-09-30T06:22:35;23.52;;;13.07;;
31537;SDS011;18147;51.952;6.146;2022-09-30T06:25:04;17.25;;;11.45;;
31537;SDS011;18147;51.952;6.146;2022-09-30T06:27:31;22.42;;;12.32;;
31537;SDS011;18147;51.952;6.146;2022-09-30T06:29:57;19.40;;;12.80;;
31537;SDS011;18147;51.952;6.146;2022-09-30T06:32:23;21.02;;;11.65;;
31537;SDS011;18147;51.952;6.146;2022-09-30T06:34:50;18.45;;;11.63;;
31537;SDS011;18147;51.952;6.146;2022-09-30T06:37:16;20.67;;;13.00;;
31537;SDS011;18147;51.952;6.146;2022-09-30T06:39:42;22.00;;;13.85;;
31537;SDS011;18147;51.952;6.146;2022-09-30T06:42:08;27.00;;;15.80;;
31537;SDS011;18147;51.952;6.146;2022-09-30T06:44:35;24.77;;;14.95;;
31537;SDS011;18147;51.952;6.146;2022-09-30T06:47:00;23.30;;;14.48;;
31537;SDS011;18147;51.952;6.146;2022-09-30T06:49:26;24.90;;;15.45;;
31537;SDS011;18147;51.952;6.146;2022-09-30T06:51:52;21.45;;;14.23;;
31537;SDS011;18147;51.952;6.146;2022-09-30T06:54:17;26.48;;;15.85;;
31537;SDS011;18147;51.952;6.146;2022-09-30T06:56:46;28.13;;;16.98;;
31537;SDS011;18147;51.952;6.146;2022-09-30T06:59:12;26.27;;;17.10;;
31537;SDS011;18147;51.952;6.146;2022-09-30T07:01:40;32.28;;;18.90;;
31537;SDS011;18147;51.952;6.146;2022-09-30T07:04:09;32.42;;;19.40;;
31537;SDS011;18147;51.952;6.146;2022-09-30T07:06:34;32.60;;;19.45;;
31537;SDS011;18147;51.952;6.146;2022-09-30T07:09:00;33.88;;;19.50;;
31537;SDS011;18147;51.952;6.146;2022-09-30T07:11:25;38.95;;;21.75;;
31537;SDS011;18147;51.952;6.146;2022-09-30T07:13:51;35.67;;;20.38;;
31537;SDS011;18147;51.952;6.146;2022-09-30T07:16:17;40.65;;;21.15;;
31537;SDS011;18147;51.952;6.146;2022-09-30T07:18:45;38.28;;;22.55;;
31537;SDS011;18147;51.952;6.146;2022-09-30T07:21:11;38.25;;;23.50;;
31537;SDS011;18147;51.952;6.146;2022-09-30T07:23:39;38.60;;;23.08;;
31537;SDS011;18147;51.952;6.146;2022-09-30T07:26:09;41.08;;;24.63;;
31537;SDS011;18147;51.952;6.146;2022-09-30T07:28:37;41.33;;;24.45;;
31537;SDS011;18147;51.952;6.146;2022-09-30T07:31:07;46.47;;;24.90;;
31537;SDS011;18147;51.952;6.146;2022-09-30T07:33:38;42.85;;;25.88;;
31537;SDS011;18147;51.952;6.146;2022-09-30T07:36:03;39.03;;;25.00;;
31537;SDS011;18147;51.952;6.146;2022-09-30T07:38:33;45.28;;;26.17;;
31537;SDS011;18147;51.952;6.146;2022-09-30T07:41:07;46.80;;;25.00;;
31537;SDS011;18147;51.952;6.146;2022-09-30T07:43:34;39.53;;;24.52;;
31537;SDS011;18147;51.952;6.146;2022-09-30T07:46:08;42.35;;;24.85;;
31537;SDS011;18147;51.952;6.146;2022-09-30T07:48:38;47.80;;;27.23;;
31537;SDS011;18147;51.952;6.146;2022-09-30T07:51:13;46.15;;;26.83;;
31537;SDS011;18147;51.952;6.146;2022-09-30T07:53:41;48.85;;;28.75;;
31537;SDS011;18147;51.952;6.146;2022-09-30T07:56:09;44.72;;;27.88;;
31537;SDS011;18147;51.952;6.146;2022-09-30T07:58:35;48.03;;;29.50;;
31537;SDS011;18147;51.952;6.146;2022-09-30T08:01:01;48.95;;;28.83;;
31537;SDS011;18147;51.952;6.146;2022-09-30T08:03:31;52.15;;;30.40;;
31537;SDS011;18147;51.952;6.146;2022-09-30T08:08:43;51.85;;;29.90;;
31537;SDS011;18147;51.952;6.146;2022-09-30T08:11:10;52.83;;;29.67;;
31537;SDS011;18147;51.952;6.146;2022-09-30T08:13:36;49.67;;;29.23;;
31537;SDS011;18147;51.952;6.146;2022-09-30T08:16:03;54.97;;;31.40;;
31537;SDS011;18147;51.952;6.146;2022-09-30T08:18:29;54.42;;;32.50;;
31537;SDS011;18147;51.952;6.146;2022-09-30T08:20:55;53.35;;;32.40;;
31537;SDS011;18147;51.952;6.146;2022-09-30T08:23:20;56.03;;;32.28;;
31537;SDS011;18147;51.952;6.146;2022-09-30T08:25:46;57.95;;;32.72;;
31537;SDS011;18147;51.952;6.146;2022-09-30T08:28:12;54.25;;;31.58;;
31537;SDS011;18147;51.952;6.146;2022-09-30T08:30:38;51.20;;;30.52;;
31537;SDS011;18147;51.952;6.146;2022-09-30T08:33:04;55.63;;;33.10;;
31537;SDS011;18147;51.952;6.146;2022-09-30T08:35:30;47.03;;;28.83;;
31537;SDS011;18147;51.952;6.146;2022-09-30T08:37:56;48.90;;;29.63;;
31537;SDS011;18147;51.952;6.146;2022-09-30T08:40:28;54.85;;;28.77;;
31537;SDS011;18147;51.952;6.146;2022-09-30T08:43:12;45.15;;;28.58;;
31537;SDS011;18147;51.952;6.146;2022-09-30T08:54:02;48.60;;;29.45;;
31537;SDS011;18147;51.952;6.146;2022-09-30T08:56:33;39.17;;;26.60;;
31537;SDS011;18147;51.952;6.146;2022-09-30T09:01:33;44.33;;;27.35;;
31537;SDS011;18147;51.952;6.146;2022-09-30T09:04:05;41.83;;;26.52;;
31537;SDS011;18147;51.952;6.146;2022-09-30T09:06:35;42.13;;;26.75;;
31537;SDS011;18147;51.952;6.146;2022-09-30T09:09:28;39.85;;;25.95;;
31537;SDS011;18147;51.952;6.146;2022-09-30T09:12:08;39.13;;;24.00;;
31537;SDS011;18147;51.952;6.146;2022-09-30T09:20:15;36.50;;;21.30;;
31537;SDS011;18147;51.952;6.146;2022-09-30T09:22:46;30.88;;;21.30;;
31537;SDS011;18147;51.952;6.146;2022-09-30T09:25:16;31.73;;;20.70;;
31537;SDS011;18147;51.952;6.146;2022-09-30T09:27:48;34.92;;;20.52;;
31537;SDS011;18147;51.952;6.146;2022-09-30T09:30:28;32.40;;;22.33;;
31537;SDS011;18147;51.952;6.146;2022-09-30T09:36:09;28.17;;;20.20;;
31537;SDS011;18147;51.952;6.146;2022-09-30T09:38:37;31.77;;;20.20;;
31537;SDS011;18147;51.952;6.146;2022-09-30T09:47:24;29.48;;;19.20;;
31537;SDS011;18147;51.952;6.146;2022-09-30T09:49:43;26.38;;;18.77;;
31537;SDS011;18147;51.952;6.146;2022-09-30T09:54:44;32.28;;;18.70;;
31537;SDS011;18147;51.952;6.146;2022-09-30T09:57:12;25.88;;;19.13;;
31537;SDS011;18147;51.952;6.146;2022-09-30T10:00:03;26.88;;;16.35;;
31537;SDS011;18147;51.952;6.146;2022-09-30T10:02:59;23.95;;;16.75;;
31537;SDS011;18147;51.952;6.146;2022-09-30T10:05:30;22.80;;;16.92;;
31537;SDS011;18147;51.952;6.146;2022-09-30T10:08:10;25.58;;;16.92;;
31537;SDS011;18147;51.952;6.146;2022-09-30T10:10:50;28.42;;;16.77;;
31537;SDS011;18147;51.952;6.146;2022-09-30T10:13:18;23.13;;;16.80;;
31537;SDS011;18147;51.952;6.146;2022-09-30T10:15:46;26.13;;;16.15;;
31537;SDS011;18147;51.952;6.146;2022-09-30T10:18:24;23.40;;;16.85;;
31537;SDS011;18147;51.952;6.146;2022-09-30T10:20:56;24.95;;;17.13;;
31537;SDS011;18147;51.952;6.146;2022-09-30T10:26:03;28.58;;;18.27;;
31537;SDS011;18147;51.952;6.146;2022-09-30T10:28:44;30.92;;;19.65;;
31537;SDS011;18147;51.952;6.146;2022-09-30T10:34:17;27.50;;;19.88;;
31537;SDS011;18147;51.952;6.146;2022-09-30T10:36:56;28.95;;;20.92;;
31537;SDS011;18147;51.952;6.146;2022-09-30T10:39:26;28.02;;;18.05;;
31537;SDS011;18147;51.952;6.146;2022-09-30T10:42:01;26.10;;;18.77;;
31537;SDS011;18147;51.952;6.146;2022-09-30T10:44:43;31.20;;;19.70;;
31537;SDS011;18147;51.952;6.146;2022-09-30T10:47:18;23.58;;;17.60;;
31537;SDS011;18147;51.952;6.146;2022-09-30T10:52:24;27.33;;;17.60;;
31537;SDS011;18147;51.952;6.146;2022-09-30T10:54:53;26.55;;;19.17;;
31537;SDS011;18147;51.952;6.146;2022-09-30T10:57:21;27.55;;;19.00;;
31537;SDS011;18147;51.952;6.146;2022-09-30T10:59:57;28.88;;;20.48;;
31537;SDS011;18147;51.952;6.146;2022-09-30T11:05:20;27.92;;;19.02;;
31537;SDS011;18147;51.952;6.146;2022-09-30T11:07:52;25.98;;;18.65;;
31537;SDS011;18147;51.952;6.146;2022-09-30T11:10:29;27.55;;;20.23;;
31537;SDS011;18147;51.952;6.146;2022-09-30T11:18:49;29.35;;;20.48;;
31537;SDS011;18147;51.952;6.146;2022-09-30T11:21:43;32.00;;;21.83;;
31537;SDS011;18147;51.952;6.146;2022-09-30T11:24:24;31.85;;;21.15;;
31537;SDS011;18147;51.952;6.146;2022-09-30T11:27:05;31.67;;;20.55;;
31537;SDS011;18147;51.952;6.146;2022-09-30T11:35:06;22.63;;;17.52;;
31537;SDS011;18147;51.952;6.146;2022-09-30T11:37:52;24.30;;;17.40;;
31537;SDS011;18147;51.952;6.146;2022-09-30T11:43:04;26.55;;;19.60;;
31537;SDS011;18147;51.952;6.146;2022-09-30T11:45:55;27.50;;;18.48;;
31537;SDS011;18147;51.952;6.146;2022-09-30T11:54:21;24.20;;;14.55;;
31537;SDS011;18147;51.952;6.146;2022-09-30T11:57:06;26.42;;;15.45;;
31537;SDS011;18147;51.952;6.146;2022-09-30T11:59:41;23.15;;;14.20;;
31537;SDS011;18147;51.952;6.146;2022-09-30T12:05:27;19.90;;;13.00;;
31537;SDS011;18147;51.952;6.146;2022-09-30T12:10:53;18.52;;;11.50;;
31537;SDS011;18147;51.952;6.146;2022-09-30T12:13:26;19.42;;;11.40;;
31537;SDS011;18147;51.952;6.146;2022-09-30T12:15:56;18.80;;;11.07;;
31537;SDS011;18147;51.952;6.146;2022-09-30T12:18:40;14.88;;;10.05;;
31537;SDS011;18147;51.952;6.146;2022-09-30T12:23:47;17.15;;;9.65;;
31537;SDS011;18147;51.952;6.146;2022-09-30T12:26:26;13.57;;;7.40;;
31537;SDS011;18147;51.952;6.146;2022-09-30T12:28:56;14.38;;;8.32;;
31537;SDS011;18147;51.952;6.146;2022-09-30T12:31:50;15.38;;;8.15;;
31537;SDS011;18147;51.952;6.146;2022-09-30T12:34:54;13.15;;;8.65;;
31537;SDS011;18147;51.952;6.146;2022-09-30T12:48:20;12.35;;;9.20;;
31537;SDS011;18147;51.952;6.146;2022-09-30T12:50:52;11.25;;;7.70;;
31537;SDS011;18147;51.952;6.146;2022-09-30T12:53:28;10.48;;;7.70;;
31537;SDS011;18147;51.952;6.146;2022-09-30T12:56:01;13.18;;;8.38;;
31537;SDS011;18147;51.952;6.146;2022-09-30T12:58:42;10.90;;;7.95;;
31537;SDS011;18147;51.952;6.146;2022-09-30T13:01:16;11.45;;;6.07;;
31537;SDS011;18147;51.952;6.146;2022-09-30T13:03:48;9.13;;;5.50;;
31537;SDS011;18147;51.952;6.146;2022-09-30T13:09:18;5.63;;;4.53;;
31537;SDS011;18147;51.952;6.146;2022-09-30T13:14:39;7.25;;;4.35;;
31537;SDS011;18147;51.952;6.146;2022-09-30T13:19:39;9.00;;;5.43;;
31537;SDS011;18147;51.952;6.146;2022-09-30T13:27:38;5.88;;;4.03;;
31537;SDS011;18147;51.952;6.146;2022-09-30T13:40:35;3.00;;;2.70;;
31537;SDS011;18147;51.952;6.146;2022-09-30T13:43:31;3.90;;;2.58;;
31537;SDS011;18147;51.952;6.146;2022-09-30T13:46:06;4.97;;;2.45;;
31537;SDS011;18147;51.952;6.146;2022-09-30T13:48:37;3.75;;;2.33;;
31537;SDS011;18147;51.952;6.146;2022-09-30T13:51:07;3.97;;;2.22;;
31537;SDS011;18147;51.952;6.146;2022-09-30T13:56:10;4.55;;;2.78;;
31537;SDS011;18147;51.952;6.146;2022-09-30T14:04:31;2.88;;;2.50;;
31537;SDS011;18147;51.952;6.146;2022-09-30T14:21:29;2.20;;;1.70;;
31537;SDS011;18147;51.952;6.146;2022-09-30T14:31:53;5.60;;;1.88;;
31537;SDS011;18147;51.952;6.146;2022-09-30T14:34:20;2.58;;;1.63;;
31537;SDS011;18147;51.952;6.146;2022-09-30T14:36:50;3.45;;;1.85;;
31537;SDS011;18147;51.952;6.146;2022-09-30T14:39:19;3.28;;;1.90;;
31537;SDS011;18147;51.952;6.146;2022-09-30T14:41:57;2.97;;;1.70;;
31537;SDS011;18147;51.952;6.146;2022-09-30T14:44:27;3.55;;;1.70;;
31537;SDS011;18147;51.952;6.146;2022-09-30T14:46:58;2.95;;;1.75;;
31537;SDS011;18147;51.952;6.146;2022-09-30T14:49:26;4.10;;;2.13;;
31537;SDS011;18147;51.952;6.146;2022-09-30T14:51:59;2.80;;;2.25;;
31537;SDS011;18147;51.952;6.146;2022-09-30T14:54:27;5.55;;;2.38;;
31537;SDS011;18147;51.952;6.146;2022-09-30T14:56:54;3.00;;;1.98;;
31537;SDS011;18147;51.952;6.146;2022-09-30T14:59:22;5.15;;;2.22;;
31537;SDS011;18147;51.952;6.146;2022-09-30T15:01:51;2.35;;;1.70;;
31537;SDS011;18147;51.952;6.146;2022-09-30T15:04:24;1.45;;;1.35;;
31537;SDS011;18147;51.952;6.146;2022-09-30T15:06:51;3.30;;;1.98;;
31537;SDS011;18147;51.952;6.146;2022-09-30T15:09:20;3.63;;;1.50;;
31537;SDS011;18147;51.952;6.146;2022-09-30T15:11:48;3.65;;;1.65;;
31537;SDS011;18147;51.952;6.146;2022-09-30T15:14:17;8.32;;;2.13;;
31537;SDS011;18147;51.952;6.146;2022-09-30T15:16:54;4.90;;;2.20;;
31537;SDS011;18147;51.952;6.146;2022-09-30T15:19:25;3.13;;;1.58;;
31537;SDS011;18147;51.952;6.146;2022-09-30T15:21:53;2.58;;;1.90;;
31537;SDS011;18147;51.952;6.146;2022-09-30T15:24:20;4.45;;;2.75;;
31537;SDS011;18147;51.952;6.146;2022-09-30T15:26:48;3.78;;;1.92;;
31537;SDS011;18147;51.952;6.146;2022-09-30T15:29:15;6.72;;;2.80;;
31537;SDS011;18147;51.952;6.146;2022-09-30T15:31:48;4.07;;;2.08;;
31537;SDS011;18147;51.952;6.146;2022-09-30T15:34:24;6.00;;;2.05;;
31537;SDS011;18147;51.952;6.146;2022-09-30T15:37:00;4.97;;;2.55;;
31537;SDS011;18147;51.952;6.146;2022-09-30T15:39:37;6.28;;;2.30;;
31537;SDS011;18147;51.952;6.146;2022-09-30T15:42:29;8.55;;;2.72;;
31537;SDS011;18147;51.952;6.146;2022-09-30T15:45:00;4.68;;;2.30;;
31537;SDS011;18147;51.952;6.146;2022-09-30T15:47:52;4.80;;;2.40;;
31537;SDS011;18147;51.952;6.146;2022-09-30T15:53:20;4.68;;;2.30;;
31537;SDS011;18147;51.952;6.146;2022-09-30T15:55:49;2.47;;;2.25;;
31537;SDS011;18147;51.952;6.146;2022-09-30T16:03:55;4.40;;;2.05;;
31537;SDS011;18147;51.952;6.146;2022-09-30T16:06:27;3.72;;;1.70;;
31537;SDS011;18147;51.952;6.146;2022-09-30T16:09:00;6.00;;;2.05;;
31537;SDS011;18147;51.952;6.146;2022-09-30T16:11:39;6.05;;;1.83;;
31537;SDS011;18147;51.952;6.146;2022-09-30T16:14:08;3.83;;;1.95;;
31537;SDS011;18147;51.952;6.146;2022-09-30T16:16:41;3.15;;;2.53;;
31537;SDS011;18147;51.952;6.146;2022-09-30T16:19:14;3.60;;;1.83;;
31537;SDS011;18147;51.952;6.146;2022-09-30T16:21:43;4.68;;;2.20;;
31537;SDS011;18147;51.952;6.146;2022-09-30T16:26:47;5.35;;;2.15;;
31537;SDS011;18147;51.952;6.146;2022-09-30T16:29:14;3.78;;;1.77;;
31537;SDS011;18147;51.952;6.146;2022-09-30T16:31:40;2.53;;;1.90;;
31537;SDS011;18147;51.952;6.146;2022-09-30T16:34:09;5.20;;;2.63;;
31537;SDS011;18147;51.952;6.146;2022-09-30T16:36:49;3.67;;;1.80;;
31537;SDS011;18147;51.952;6.146;2022-09-30T16:39:15;2.90;;;1.90;;
31537;SDS011;18147;51.952;6.146;2022-09-30T16:41:41;3.22;;;2.00;;
31537;SDS011;18147;51.952;6.146;2022-09-30T16:44:07;3.03;;;2.00;;
31537;SDS011;18147;51.952;6.146;2022-09-30T16:46:33;5.40;;;2.35;;
31537;SDS011;18147;51.952;6.146;2022-09-30T16:48:59;5.18;;;2.00;;
31537;SDS011;18147;51.952;6.146;2022-09-30T16:51:34;4.65;;;2.08;;
31537;SDS011;18147;51.952;6.146;2022-09-30T16:54:00;9.60;;;2.10;;
31537;SDS011;18147;51.952;6.146;2022-09-30T16:56:25;2.80;;;1.70;;
31537;SDS011;18147;51.952;6.146;2022-09-30T16:58:51;4.25;;;2.08;;
31537;SDS011;18147;51.952;6.146;2022-09-30T17:01:20;3.70;;;2.17;;
31537;SDS011;18147;51.952;6.146;2022-09-30T17:03:47;4.85;;;2.17;;
31537;SDS011;18147;51.952;6.146;2022-09-30T17:06:14;4.57;;;1.85;;
31537;SDS011;18147;51.952;6.146;2022-09-30T17:08:41;6.43;;;2.00;;
31537;SDS011;18147;51.952;6.146;2022-09-30T17:11:07;3.05;;;2.13;;
31537;SDS011;18147;51.952;6.146;2022-09-30T17:13:34;7.68;;;2.25;;
31537;SDS011;18147;51.952;6.146;2022-09-30T17:15:59;4.32;;;2.28;;
31537;SDS011;18147;51.952;6.146;2022-09-30T17:18:25;2.70;;;2.15;;
31537;SDS011;18147;51.952;6.146;2022-09-30T17:20:51;5.72;;;2.05;;
31537;SDS011;18147;51.952;6.146;2022-09-30T17:23:18;3.33;;;2.20;;
31537;SDS011;18147;51.952;6.146;2022-09-30T17:25:47;5.70;;;2.58;;
31537;SDS011;18147;51.952;6.146;2022-09-30T17:28:13;2.88;;;2.13;;
31537;SDS011;18147;51.952;6.146;2022-09-30T17:30:40;3.97;;;2.25;;
31537;SDS011;18147;51.952;6.146;2022-09-30T17:33:07;4.28;;;2.42;;
31537;SDS011;18147;51.952;6.146;2022-09-30T17:35:34;3.85;;;2.20;;
31537;SDS011;18147;51.952;6.146;2022-09-30T17:38:11;8.98;;;2.05;;
31537;SDS011;18147;51.952;6.146;2022-09-30T17:40:37;2.80;;;2.20;;
31537;SDS011;18147;51.952;6.146;2022-09-30T17:43:22;3.17;;;2.35;;
31537;SDS011;18147;51.952;6.146;2022-09-30T17:45:48;4.15;;;2.30;;
31537;SDS011;18147;51.952;6.146;2022-09-30T17:48:15;2.63;;;2.13;;
31537;SDS011;18147;51.952;6.146;2022-09-30T17:50:42;3.40;;;2.40;;
31537;SDS011;18147;51.952;6.146;2022-09-30T17:53:10;15.10;;;2.75;;
31537;SDS011;18147;51.952;6.146;2022-09-30T17:55:42;5.10;;;3.17;;
31537;SDS011;18147;51.952;6.146;2022-09-30T17:58:11;4.60;;;2.70;;
31537;SDS011;18147;51.952;6.146;2022-09-30T18:00:36;4.70;;;2.33;;
31537;SDS011;18147;51.952;6.146;2022-09-30T18:03:02;5.32;;;2.55;;
31537;SDS011;18147;51.952;6.146;2022-09-30T18:05:29;3.85;;;2.67;;
31537;SDS011;18147;51.952;6.146;2022-09-30T18:07:56;3.50;;;2.22;;
31537;SDS011;18147;51.952;6.146;2022-09-30T18:10:21;5.10;;;2.38;;
31537;SDS011;18147;51.952;6.146;2022-09-30T18:12:47;4.28;;;2.83;;
31537;SDS011;18147;51.952;6.146;2022-09-30T18:15:14;7.20;;;2.78;;